Time;durP1;ratioP1;P1;durP2;ratioP2;P2;SDS_P1;SDS_P2;PMS_P1;PMS_P2;Temp;Humidity;BMP_temperature;BMP_pressure;BME280_temperature;BME280_humidity;BME280_pressure;Samples;Min_cycle;Max_cycle;Signal;HPM_P1;HPM_P2
2021/10/21 00:01:50;;;;;;;29.13;16.53;;;;;;;;;;4434088;32;20312;-54
2021/10/21 00:04:16;;;;;;;27.93;15.43;;;;;;;;;;4433130;32;20327;-54
2021/10/21 00:06:41;;;;;;;26.20;16.00;;;;;;;;;;4433413;32;20236;-54
2021/10/21 00:09:07;;;;;;;34.70;16.33;;;;;;;;;;4434898;32;20326;-54
2021/10/21 00:11:33;;;;;;;31.43;18.30;;;;;;;;;;4445553;32;20221;-54
2021/10/21 00:13:58;;;;;;;29.93;16.93;;;;;;;;;;4433232;32;20347;-53
2021/10/21 00:16:24;;;;;;;30.40;17.83;;;;;;;;;;4434472;32;20357;-53
2021/10/21 00:18:50;;;;;;;30.77;19.43;;;;;;;;;;4434553;32;20613;-54
2021/10/21 00:21:16;;;;;;;28.30;17.27;;;;;;;;;;4434026;32;20270;-54
2021/10/21 00:23:42;;;;;;;30.57;18.13;;;;;;;;;;4434519;32;20252;-54
2021/10/21 00:26:08;;;;;;;31.17;17.43;;;;;;;;;;4434162;32;20316;-54
2021/10/21 00:28:37;;;;;;;29.67;16.70;;;;;;;;;;4434320;32;20340;-54
2021/10/21 00:31:04;;;;;;;39.37;23.37;;;;;;;;;;4433960;32;20302;-53
2021/10/21 00:33:30;;;;;;;45.27;24.23;;;;;;;;;;4434125;32;20224;-56
2021/10/21 00:35:55;;;;;;;45.07;25.10;;;;;;;;;;4433898;32;20471;-54
2021/10/21 00:38:21;;;;;;;39.97;22.30;;;;;;;;;;4434203;32;20303;-53
2021/10/21 00:40:46;;;;;;;43.97;21.73;;;;;;;;;;4432962;32;20390;-55
2021/10/21 00:43:12;;;;;;;40.13;22.17;;;;;;;;;;4434019;32;20268;-54
2021/10/21 00:45:37;;;;;;;38.53;22.43;;;;;;;;;;4432769;32;20398;-54
2021/10/21 00:48:03;;;;;;;33.97;19.93;;;;;;;;;;4433850;32;20288;-54
2021/10/21 00:50:29;;;;;;;40.03;21.80;;;;;;;;;;4433872;32;20314;-54
2021/10/21 00:52:56;;;;;;;41.07;20.03;;;;;;;;;;4434034;32;20220;-54
2021/10/21 00:55:21;;;;;;;26.47;16.20;;;;;;;;;;4434222;32;20330;-56
2021/10/21 00:57:47;;;;;;;31.30;16.03;;;;;;;;;;4433866;32;20613;-53
2021/10/21 01:00:13;;;;;;;28.30;15.83;;;;;;;;;;4432491;32;20327;-54
2021/10/21 01:02:39;;;;;;;36.43;17.23;;;;;;;;;;4433252;32;20232;-54
2021/10/21 01:05:05;;;;;;;28.23;16.17;;;;;;;;;;4433790;32;20276;-54
2021/10/21 01:07:31;;;;;;;27.33;15.00;;;;;;;;;;4433460;32;20228;-54
2021/10/21 01:09:56;;;;;;;26.33;15.67;;;;;;;;;;4437720;32;20287;-54
2021/10/21 01:12:22;;;;;;;30.57;15.10;;;;;;;;;;4440371;32;20579;-54
2021/10/21 01:14:48;;;;;;;24.70;15.57;;;;;;;;;;4433969;32;20354;-54
2021/10/21 01:17:15;;;;;;;26.87;14.63;;;;;;;;;;4433214;32;20465;-53
2021/10/21 01:19:40;;;;;;;24.40;13.73;;;;;;;;;;4433586;32;20213;-55
2021/10/21 01:22:06;;;;;;;23.17;14.17;;;;;;;;;;4433545;32;20675;-54
2021/10/21 01:24:32;;;;;;;27.77;15.90;;;;;;;;;;4433481;32;20429;-55
2021/10/21 01:26:57;;;;;;;24.97;16.00;;;;;;;;;;4433366;32;20342;-55
2021/10/21 01:29:25;;;;;;;27.90;15.67;;;;;;;;;;4433558;32;20280;-56
2021/10/21 01:31:52;;;;;;;27.10;15.87;;;;;;;;;;4433770;32;20296;-55
2021/10/21 01:34:18;;;;;;;28.97;17.53;;;;;;;;;;4433260;32;20326;-54
2021/10/21 01:36:49;;;;;;;28.73;16.53;;;;;;;;;;4432067;32;20229;-53
2021/10/21 01:39:14;;;;;;;33.20;18.80;;;;;;;;;;4433727;32;20216;-53
2021/10/21 01:41:40;;;;;;;31.67;18.27;;;;;;;;;;4433264;32;20618;-53
2021/10/21 01:44:05;;;;;;;29.37;17.30;;;;;;;;;;4433235;32;20272;-55
2021/10/21 01:46:31;;;;;;;33.83;17.37;;;;;;;;;;4433386;32;20684;-54
2021/10/21 01:48:57;;;;;;;37.20;22.63;;;;;;;;;;4432030;32;20698;-54
2021/10/21 01:51:22;;;;;;;42.27;23.43;;;;;;;;;;4433213;32;20282;-53
2021/10/21 01:53:48;;;;;;;40.73;21.50;;;;;;;;;;4433447;32;20315;-54
2021/10/21 01:56:14;;;;;;;40.33;21.40;;;;;;;;;;4433086;32;20339;-55
2021/10/21 01:58:40;;;;;;;33.90;19.40;;;;;;;;;;4433534;32;20726;-54
2021/10/21 02:01:05;;;;;;;32.60;17.07;;;;;;;;;;4432513;32;20351;-53
2021/10/21 02:03:31;;;;;;;31.90;17.97;;;;;;;;;;4431959;32;20664;-54
2021/10/21 02:05:56;;;;;;;34.10;19.47;;;;;;;;;;4432972;32;20299;-53
2021/10/21 02:08:22;;;;;;;31.93;18.13;;;;;;;;;;4433023;32;20315;-54
2021/10/21 02:10:48;;;;;;;35.27;17.40;;;;;;;;;;4437398;32;20315;-55
2021/10/21 02:13:13;;;;;;;33.13;17.80;;;;;;;;;;4437589;32;20548;-56
2021/10/21 02:15:40;;;;;;;24.27;17.30;;;;;;;;;;4438092;32;20276;-54
2021/10/21 02:18:05;;;;;;;31.33;17.53;;;;;;;;;;4438087;32;20240;-54
2021/10/21 02:20:31;;;;;;;31.33;17.17;;;;;;;;;;4438121;32;20287;-54
2021/10/21 02:22:56;;;;;;;23.90;16.13;;;;;;;;;;4437844;32;20263;-53
2021/10/21 02:25:22;;;;;;;24.73;16.30;;;;;;;;;;4438050;32;20297;-54
2021/10/21 02:27:49;;;;;;;29.90;17.10;;;;;;;;;;4438142;32;20341;-53
2021/10/21 02:30:16;;;;;;;40.53;21.43;;;;;;;;;;4438220;32;20250;-56
2021/10/21 02:32:43;;;;;;;53.17;23.23;;;;;;;;;;4438099;32;20236;-54
2021/10/21 02:35:10;;;;;;;46.80;24.20;;;;;;;;;;4437790;32;20325;-55
2021/10/21 02:37:36;;;;;;;31.63;20.13;;;;;;;;;;4438312;32;20301;-54
2021/10/21 02:40:03;;;;;;;41.50;20.93;;;;;;;;;;4438299;32;20699;-55
2021/10/21 02:42:29;;;;;;;29.13;16.50;;;;;;;;;;4438004;32;20256;-53
2021/10/21 02:44:54;;;;;;;30.77;17.13;;;;;;;;;;4438016;32;20775;-54
2021/10/21 02:47:20;;;;;;;31.20;16.87;;;;;;;;;;4437945;32;20295;-53
2021/10/21 02:49:45;;;;;;;33.27;19.80;;;;;;;;;;4438309;32;20312;-53
2021/10/21 02:52:11;;;;;;;32.57;19.97;;;;;;;;;;4437966;32;20241;-54
2021/10/21 02:54:36;;;;;;;31.80;18.17;;;;;;;;;;4438137;32;20369;-54
2021/10/21 02:57:02;;;;;;;46.43;24.97;;;;;;;;;;4437772;32;20256;-53
2021/10/21 02:59:28;;;;;;;40.90;23.00;;;;;;;;;;4438343;32;20806;-54
2021/10/21 03:01:53;;;;;;;36.43;22.93;;;;;;;;;;4437434;32;20248;-54
2021/10/21 03:04:19;;;;;;;42.60;24.20;;;;;;;;;;4437936;32;20283;-56
2021/10/21 03:06:44;;;;;;;41.77;22.77;;;;;;;;;;4437743;32;20225;-54
2021/10/21 03:09:10;;;;;;;38.27;24.17;;;;;;;;;;4437478;32;20662;-53
2021/10/21 03:11:35;;;;;;;56.20;27.33;;;;;;;;;;4448506;32;20252;-54
2021/10/21 03:14:01;;;;;;;56.70;29.60;;;;;;;;;;4437536;32;20292;-53
2021/10/21 03:16:29;;;;;;;70.23;32.37;;;;;;;;;;4436293;32;20244;-53
2021/10/21 03:18:55;;;;;;;73.30;36.03;;;;;;;;;;4437543;32;20213;-53
2021/10/21 03:21:20;;;;;;;73.33;36.90;;;;;;;;;;4435799;32;20253;-53
2021/10/21 03:23:46;;;;;;;86.00;40.20;;;;;;;;;;4434220;32;20311;-53
2021/10/21 03:26:11;;;;;;;92.63;36.33;;;;;;;;;;4435433;32;20307;-53
2021/10/21 03:28:37;;;;;;;76.33;32.20;;;;;;;;;;4435392;32;20312;-54
2021/10/21 03:31:02;;;;;;;78.87;30.40;;;;;;;;;;4434932;32;20337;-54
2021/10/21 03:33:28;;;;;;;65.77;25.87;;;;;;;;;;4435323;32;20283;-53
2021/10/21 03:35:53;;;;;;;54.50;24.67;;;;;;;;;;4435033;32;20299;-54
2021/10/21 03:38:19;;;;;;;52.97;24.63;;;;;;;;;;4435107;32;20306;-54
2021/10/21 03:40:44;;;;;;;90.10;32.47;;;;;;;;;;4435161;32;20355;-54
2021/10/21 03:43:10;;;;;;;82.70;31.53;;;;;;;;;;4433604;32;20327;-54
2021/10/21 03:45:36;;;;;;;79.77;33.37;;;;;;;;;;4435064;32;20317;-53
2021/10/21 03:48:01;;;;;;;92.00;32.73;;;;;;;;;;4434473;32;20270;-53
2021/10/21 03:50:28;;;;;;;61.00;26.73;;;;;;;;;;4435114;32;20273;-53
2021/10/21 03:52:53;;;;;;;70.50;25.03;;;;;;;;;;4435118;32;20240;-53
2021/10/21 03:55:19;;;;;;;45.17;22.70;;;;;;;;;;4434969;32;20403;-53
2021/10/21 03:57:44;;;;;;;44.27;21.73;;;;;;;;;;4433515;32;20601;-52
2021/10/21 04:00:10;;;;;;;53.00;21.27;;;;;;;;;;4434782;32;20339;-53
2021/10/21 04:02:37;;;;;;;32.37;17.90;;;;;;;;;;4433942;32;20280;-53
2021/10/21 04:05:04;;;;;;;25.10;13.97;;;;;;;;;;4434297;32;20241;-53
2021/10/21 04:07:29;;;;;;;26.70;14.13;;;;;;;;;;4434929;32;20351;-55
2021/10/21 04:09:55;;;;;;;30.93;14.83;;;;;;;;;;4433334;32;20730;-53
2021/10/21 04:12:20;;;;;;;29.87;15.00;;;;;;;;;;4434380;32;20554;-53
2021/10/21 04:14:46;;;;;;;31.10;15.77;;;;;;;;;;4434689;32;20374;-53
2021/10/21 04:17:11;;;;;;;26.27;15.37;;;;;;;;;;4434189;32;20656;-54
2021/10/21 04:19:36;;;;;;;30.27;16.50;;;;;;;;;;4434791;32;20292;-53
2021/10/21 04:22:02;;;;;;;32.93;15.00;;;;;;;;;;4434337;32;20248;-53
2021/10/21 04:24:27;;;;;;;29.33;16.90;;;;;;;;;;4434335;32;20323;-53
2021/10/21 04:26:53;;;;;;;35.87;16.57;;;;;;;;;;4433974;32;20352;-54
2021/10/21 04:29:18;;;;;;;32.83;16.80;;;;;;;;;;4434281;32;20283;-54
2021/10/21 04:31:44;;;;;;;31.70;18.33;;;;;;;;;;4434311;32;20252;-53
2021/10/21 04:34:09;;;;;;;36.10;19.47;;;;;;;;;;4433076;32;20670;-54
2021/10/21 04:36:35;;;;;;;39.43;20.97;;;;;;;;;;4434130;32;20284;-54
2021/10/21 04:39:00;;;;;;;53.97;22.43;;;;;;;;;;4434069;32;20279;-54
2021/10/21 04:41:26;;;;;;;45.87;23.43;;;;;;;;;;4434171;32;20240;-53
2021/10/21 04:43:51;;;;;;;64.43;32.17;;;;;;;;;;4432758;32;20316;-54
2021/10/21 04:46:17;;;;;;;78.80;32.73;;;;;;;;;;4434033;32;20233;-55
2021/10/21 04:48:42;;;;;;;66.30;32.37;;;;;;;;;;4433996;32;20280;-57
2021/10/21 04:51:08;;;;;;;69.33;30.97;;;;;;;;;;4433655;32;20232;-54
2021/10/21 04:53:33;;;;;;;47.67;25.60;;;;;;;;;;4434222;32;20291;-54
2021/10/21 04:55:59;;;;;;;55.93;29.57;;;;;;;;;;4434228;32;20264;-55
2021/10/21 04:58:24;;;;;;;68.43;29.40;;;;;;;;;;4434293;32;20300;-53
2021/10/21 05:00:50;;;;;;;62.27;31.17;;;;;;;;;;4433946;32;20295;-54
2021/10/21 05:03:15;;;;;;;61.20;28.27;;;;;;;;;;4433156;32;20359;-53
2021/10/21 05:05:41;;;;;;;62.00;27.10;;;;;;;;;;4433384;32;20342;-54
2021/10/21 05:08:06;;;;;;;60.27;29.07;;;;;;;;;;4433587;32;20306;-54
2021/10/21 05:10:32;;;;;;;74.60;31.30;;;;;;;;;;4433893;32;20291;-53
2021/10/21 05:12:58;;;;;;;79.93;35.30;;;;;;;;;;4433857;32;20371;-53
2021/10/21 05:15:24;;;;;;;81.13;33.47;;;;;;;;;;4432631;32;20380;-54
2021/10/21 05:17:50;;;;;;;68.17;30.73;;;;;;;;;;4432290;32;20379;-55
2021/10/21 05:20:16;;;;;;;59.70;29.67;;;;;;;;;;4433134;32;20280;-54
2021/10/21 05:22:42;;;;;;;87.17;30.97;;;;;;;;;;4432320;32;20294;-54
2021/10/21 05:25:08;;;;;;;71.13;32.90;;;;;;;;;;4433505;32;20288;-55
2021/10/21 05:27:35;;;;;;;61.37;30.27;;;;;;;;;;4433122;32;20401;-55
2021/10/21 05:30:02;;;;;;;56.43;27.40;;;;;;;;;;4433562;32;20259;-54
2021/10/21 05:32:27;;;;;;;52.30;26.37;;;;;;;;;;4432596;32;20236;-53
2021/10/21 05:34:52;;;;;;;53.40;24.03;;;;;;;;;;4432880;32;20522;-52
2021/10/21 05:37:18;;;;;;;54.20;25.70;;;;;;;;;;4431734;32;20252;-53
2021/10/21 05:39:43;;;;;;;63.73;26.90;;;;;;;;;;4431954;32;20334;-53
2021/10/21 05:42:09;;;;;;;61.93;27.70;;;;;;;;;;4432749;32;20680;-53
2021/10/21 05:44:34;;;;;;;60.57;27.87;;;;;;;;;;4432650;32;20654;-55
2021/10/21 05:47:00;;;;;;;55.27;29.00;;;;;;;;;;4432939;32;20592;-54
2021/10/21 05:49:25;;;;;;;63.83;29.40;;;;;;;;;;4432718;32;20817;-54
2021/10/21 05:51:51;;;;;;;68.57;30.50;;;;;;;;;;4429976;32;20423;-55
2021/10/21 05:54:16;;;;;;;91.27;42.13;;;;;;;;;;4431309;32;20642;-54
2021/10/21 05:56:43;;;;;;;98.07;45.70;;;;;;;;;;4430058;32;20280;-53
2021/10/21 05:59:09;;;;;;;103.10;47.70;;;;;;;;;;4430850;32;20248;-53
2021/10/21 06:01:34;;;;;;;102.37;46.20;;;;;;;;;;4431225;32;20555;-54
2021/10/21 06:03:59;;;;;;;91.97;43.53;;;;;;;;;;4431691;32;20284;-54
2021/10/21 06:06:25;;;;;;;84.70;41.43;;;;;;;;;;4432862;32;20228;-54
2021/10/21 06:08:50;;;;;;;83.80;39.77;;;;;;;;;;4433141;32;20669;-54
2021/10/21 06:11:16;;;;;;;74.63;35.30;;;;;;;;;;4443949;32;20279;-54
2021/10/21 06:13:41;;;;;;;63.87;34.50;;;;;;;;;;4433174;32;20602;-55
2021/10/21 06:16:07;;;;;;;67.33;34.37;;;;;;;;;;4432943;32;20329;-53
2021/10/21 06:18:34;;;;;;;54.37;30.00;;;;;;;;;;4432788;32;20363;-55
2021/10/21 06:21:01;;;;;;;71.33;32.23;;;;;;;;;;4432902;32;20621;-54
2021/10/21 06:23:27;;;;;;;79.60;31.10;;;;;;;;;;4433206;32;20581;-53
2021/10/21 06:25:53;;;;;;;96.33;43.10;;;;;;;;;;4431475;32;20307;-53
2021/10/21 06:28:19;;;;;;;90.07;37.23;;;;;;;;;;4433000;32;20601;-55
2021/10/21 06:30:46;;;;;;;61.23;29.23;;;;;;;;;;4432964;32;20383;-55
2021/10/21 06:33:13;;;;;;;75.90;34.07;;;;;;;;;;4433028;32;20268;-55
2021/10/21 06:35:41;;;;;;;63.40;32.27;;;;;;;;;;4431620;32;20291;-54
2021/10/21 06:38:07;;;;;;;45.67;27.67;;;;;;;;;;4431619;32;20352;-55
2021/10/21 06:40:32;;;;;;;57.40;27.20;;;;;;;;;;4433071;32;20303;-54
2021/10/21 06:42:58;;;;;;;55.47;24.77;;;;;;;;;;4433345;32;20259;-53
2021/10/21 06:45:23;;;;;;;40.83;22.67;;;;;;;;;;4433405;32;20337;-53
2021/10/21 06:47:49;;;;;;;50.57;23.73;;;;;;;;;;4433198;32;20341;-53
2021/10/21 06:50:14;;;;;;;41.03;23.70;;;;;;;;;;4432138;32;20317;-54
2021/10/21 06:52:44;;;;;;;50.77;25.67;;;;;;;;;;4433424;32;20629;-53
2021/10/21 06:55:10;;;;;;;45.30;24.10;;;;;;;;;;4432468;32;20248;-54
2021/10/21 06:58:05;;;;;;;52.97;29.03;;;;;;;;;;4435475;32;20295;-53
2021/10/21 07:00:37;;;;;;;44.47;25.77;;;;;;;;;;4422204;32;20272;-54
2021/10/21 07:03:03;;;;;;;46.77;25.63;;;;;;;;;;4434777;32;20304;-53
2021/10/21 07:05:32;;;;;;;60.30;27.50;;;;;;;;;;4434333;32;20308;-55
2021/10/21 07:07:57;;;;;;;57.90;28.93;;;;;;;;;;4434229;32;20331;-53
2021/10/21 07:10:23;;;;;;;55.90;27.73;;;;;;;;;;4442477;32;20405;-54
2021/10/21 07:12:48;;;;;;;54.47;27.73;;;;;;;;;;4438570;32;20819;-54
2021/10/21 07:15:15;;;;;;;49.63;27.13;;;;;;;;;;4434983;32;20229;-53
2021/10/21 07:17:41;;;;;;;61.10;28.37;;;;;;;;;;4435384;32;20675;-53
2021/10/21 07:20:08;;;;;;;41.23;23.67;;;;;;;;;;4435204;32;20283;-53
2021/10/21 07:22:34;;;;;;;38.93;24.57;;;;;;;;;;4435344;32;20405;-53
2021/10/21 07:25:00;;;;;;;42.43;25.10;;;;;;;;;;4435262;32;20284;-56
2021/10/21 07:27:26;;;;;;;48.63;28.60;;;;;;;;;;4435297;32;20364;-54
2021/10/21 07:29:51;;;;;;;42.00;26.67;;;;;;;;;;4435684;32;20292;-54
2021/10/21 07:32:17;;;;;;;46.23;25.23;;;;;;;;;;4435210;32;20486;-54
2021/10/21 07:34:42;;;;;;;59.67;25.77;;;;;;;;;;4435257;32;20339;-53
2021/10/21 07:37:12;;;;;;;48.30;26.73;;;;;;;;;;4435275;32;20338;-53
2021/10/21 07:39:38;;;;;;;48.73;28.13;;;;;;;;;;4435439;32;20624;-54
2021/10/21 07:42:11;;;;;;;56.30;30.53;;;;;;;;;;4435094;32;20232;-53
2021/10/21 07:44:37;;;;;;;52.13;27.87;;;;;;;;;;4435501;32;20263;-54
2021/10/21 07:47:03;;;;;;;72.03;36.53;;;;;;;;;;4433563;32;20268;-54
2021/10/21 07:49:29;;;;;;;65.60;33.80;;;;;;;;;;4433783;32;20793;-54
2021/10/21 07:51:56;;;;;;;49.67;27.50;;;;;;;;;;4434646;32;20229;-54
2021/10/21 07:54:27;;;;;;;54.13;28.83;;;;;;;;;;4434778;32;20248;-55
2021/10/21 07:56:53;;;;;;;52.20;27.67;;;;;;;;;;4435080;32;20292;-53
2021/10/21 07:59:19;;;;;;;59.13;31.93;;;;;;;;;;4435008;32;20312;-53
2021/10/21 08:01:44;;;;;;;52.47;30.17;;;;;;;;;;4434342;32;20337;-54
2021/10/21 08:04:13;;;;;;;46.33;27.67;;;;;;;;;;4434662;32;20357;-54
2021/10/21 08:06:39;;;;;;;61.00;32.90;;;;;;;;;;4434916;32;20308;-53
2021/10/21 08:09:05;;;;;;;56.43;33.47;;;;;;;;;;4434863;32;20309;-55
2021/10/21 08:11:30;;;;;;;65.97;39.90;;;;;;;;;;4445612;32;20224;-53
2021/10/21 08:13:56;;;;;;;40.43;26.37;;;;;;;;;;4434992;32;20335;-54
2021/10/21 08:16:22;;;;;;;48.87;29.23;;;;;;;;;;4434564;32;20695;-53
2021/10/21 08:18:47;;;;;;;49.43;30.10;;;;;;;;;;4434336;32;20313;-55
2021/10/21 08:21:13;;;;;;;58.33;33.93;;;;;;;;;;4433860;32;20284;-54
2021/10/21 08:23:38;;;;;;;50.77;32.40;;;;;;;;;;4435065;32;20675;-54
2021/10/21 08:26:04;;;;;;;51.57;27.33;;;;;;;;;;4434003;32;20301;-54
2021/10/21 08:28:29;;;;;;;43.10;28.40;;;;;;;;;;4434659;32;20314;-55
2021/10/21 08:30:54;;;;;;;56.60;28.93;;;;;;;;;;4434555;32;20308;-54
2021/10/21 08:33:21;;;;;;;42.90;27.80;;;;;;;;;;4434005;32;20363;-54
2021/10/21 08:35:46;;;;;;;50.47;30.73;;;;;;;;;;4407861;32;20726;-54
2021/10/21 08:38:12;;;;;;;45.53;26.57;;;;;;;;;;4433111;32;20320;-54
2021/10/21 08:40:38;;;;;;;42.47;26.33;;;;;;;;;;4433264;32;20383;-55
2021/10/21 08:43:07;;;;;;;38.27;25.77;;;;;;;;;;4432732;32;20260;-54
2021/10/21 08:45:34;;;;;;;35.50;23.47;;;;;;;;;;4434299;32;20200;-54
2021/10/21 08:48:02;;;;;;;41.30;25.07;;;;;;;;;;4433444;32;20279;-54
2021/10/21 08:50:29;;;;;;;36.60;24.27;;;;;;;;;;4434567;32;20644;-54
2021/10/21 08:52:55;;;;;;;35.00;23.40;;;;;;;;;;4434457;32;20284;-54
2021/10/21 08:55:21;;;;;;;44.07;25.57;;;;;;;;;;4433960;32;20330;-56
2021/10/21 08:57:47;;;;;;;39.97;26.37;;;;;;;;;;4434016;32;20315;-53
2021/10/21 09:00:13;;;;;;;36.90;26.23;;;;;;;;;;4432746;32;20319;-54
2021/10/21 09:02:56;;;;;;;35.70;24.30;;;;;;;;;;4433426;32;20979;-54
2021/10/21 09:05:33;;;;;;;37.47;24.20;;;;;;;;;;4434282;32;20223;-53
2021/10/21 09:08:10;;;;;;;33.50;23.93;;;;;;;;;;4433847;32;20333;-53
2021/10/21 09:10:50;;;;;;;41.53;25.30;;;;;;;;;;4442259;32;20253;-54
2021/10/21 09:13:23;;;;;;;35.63;23.70;;;;;;;;;;4435014;32;20301;-54
2021/10/21 09:15:50;;;;;;;37.57;20.70;;;;;;;;;;4432619;32;20696;-54
2021/10/21 09:18:17;;;;;;;30.83;22.07;;;;;;;;;;4432518;32;20590;-54
2021/10/21 09:20:43;;;;;;;33.80;21.50;;;;;;;;;;4433894;32;20603;-54
2021/10/21 09:23:15;;;;;;;58.93;39.87;;;;;;;;;;4433562;32;20256;-54
2021/10/21 09:25:41;;;;;;;33.73;21.27;;;;;;;;;;4434085;32;20533;-54
2021/10/21 09:28:16;;;;;;;40.87;27.80;;;;;;;;;;4433549;32;20228;-54
2021/10/21 09:30:50;;;;;;;33.50;23.27;;;;;;;;;;4433939;32;20275;-54
2021/10/21 09:33:15;;;;;;;45.07;27.80;;;;;;;;;;4433405;32;20276;-55
2021/10/21 09:36:08;;;;;;;38.43;25.63;;;;;;;;;;4433428;32;20280;-54
2021/10/21 09:38:34;;;;;;;36.70;25.47;;;;;;;;;;4433715;32;20645;-54
2021/10/21 09:41:17;;;;;;;35.30;23.77;;;;;;;;;;4433158;32;20276;-54
2021/10/21 09:43:42;;;;;;;32.00;21.87;;;;;;;;;;4433335;32;20289;-55
2021/10/21 09:46:55;;;;;;;29.40;21.33;;;;;;;;;;4433093;32;20669;-53
2021/10/21 09:49:33;;;;;;;36.20;18.50;;;;;;;;;;4430864;32;20247;-54
2021/10/21 09:52:03;;;;;;;30.33;20.07;;;;;;;;;;4432877;32;20251;-53
2021/10/21 09:54:30;;;;;;;26.67;17.63;;;;;;;;;;4433168;32;20288;-53
2021/10/21 09:57:02;;;;;;;25.77;17.17;;;;;;;;;;4432868;32;20235;-54
2021/10/21 09:59:36;;;;;;;25.20;18.97;;;;;;;;;;4433544;32;20291;-54
2021/10/21 10:02:34;;;;;;;34.00;20.27;;;;;;;;;;4432561;32;20344;-54
2021/10/21 10:05:07;;;;;;;28.93;18.03;;;;;;;;;;4430036;32;20224;-53
2021/10/21 10:07:35;;;;;;;22.90;15.83;;;;;;;;;;4432126;32;20328;-54
2021/10/21 10:10:03;;;;;;;22.83;17.47;;;;;;;;;;4431034;32;20834;-55
2021/10/21 10:12:31;;;;;;;21.83;15.53;;;;;;;;;;4429802;32;20819;-55
2021/10/21 10:14:57;;;;;;;19.63;14.80;;;;;;;;;;4430214;32;20276;-54
2021/10/21 10:17:24;;;;;;;18.67;14.80;;;;;;;;;;4430411;32;20746;-54
2021/10/21 10:19:50;;;;;;;18.60;14.57;;;;;;;;;;4431524;32;20225;-54
2021/10/21 10:22:33;;;;;;;17.87;13.13;;;;;;;;;;4431459;32;20611;-54
2021/10/21 10:24:59;;;;;;;17.67;13.73;;;;;;;;;;4431413;32;20360;-54
2021/10/21 10:27:30;;;;;;;19.57;14.07;;;;;;;;;;4432909;32;20300;-54
2021/10/21 10:30:02;;;;;;;17.07;12.90;;;;;;;;;;4432992;32;20657;-55
2021/10/21 10:32:40;;;;;;;17.27;12.13;;;;;;;;;;4435814;32;20319;-54
2021/10/21 10:35:10;;;;;;;18.77;12.70;;;;;;;;;;4435490;32;20681;-54
2021/10/21 10:37:48;;;;;;;18.37;13.93;;;;;;;;;;4432538;32;20249;-55
2021/10/21 10:40:14;;;;;;;18.67;13.57;;;;;;;;;;4432973;32;20626;-53
2021/10/21 10:42:42;;;;;;;20.67;14.73;;;;;;;;;;4430964;32;20252;-54
2021/10/21 10:45:12;;;;;;;15.80;13.37;;;;;;;;;;4432326;32;20345;-54
2021/10/21 10:47:38;;;;;;;18.00;13.60;;;;;;;;;;4432793;32;20814;-54
2021/10/21 10:50:12;;;;;;;16.90;13.83;;;;;;;;;;4431547;32;20363;-55
2021/10/21 10:53:07;;;;;;;16.77;12.17;;;;;;;;;;4432145;32;20397;-54
2021/10/21 10:55:46;;;;;;;21.37;11.37;;;;;;;;;;4432549;32;20264;-54
2021/10/21 10:58:16;;;;;;;14.83;12.30;;;;;;;;;;4434923;32;20579;-54
2021/10/21 11:00:54;;;;;;;19.03;14.43;;;;;;;;;;4429040;32;20209;-54
2021/10/21 11:03:33;;;;;;;19.10;12.40;;;;;;;;;;4434871;32;20267;-54
2021/10/21 11:06:13;;;;;;;17.20;13.73;;;;;;;;;;4435200;32;20744;-56
2021/10/21 11:08:51;;;;;;;15.10;12.10;;;;;;;;;;4435747;32;20641;-54
2021/10/21 11:11:35;;;;;;;17.52;12.05;;;;;;;;;;4435326;32;20282;-54
2021/10/21 11:14:20;;;;;;;19.08;12.00;;;;;;;;;;4435589;32;20217;-55
2021/10/21 11:16:47;;;;;;;16.60;11.57;;;;;;;;;;4436021;32;20312;-55
2021/10/21 11:19:59;;;;;;;16.52;10.82;;;;;;;;;;4434290;32;20271;-54
2021/10/21 11:22:25;;;;;;;17.42;10.90;;;;;;;;;;4435983;32;20268;-54
2021/10/21 11:24:53;;;;;;;15.55;12.02;;;;;;;;;;4435660;32;20288;-54
2021/10/21 11:27:36;;;;;;;12.88;10.18;;;;;;;;;;4435436;32;20776;-55
2021/10/21 11:30:09;;;;;;;13.15;10.18;;;;;;;;;;4435147;32;20212;-55
2021/10/21 11:32:36;;;;;;;17.23;12.18;;;;;;;;;;4434404;32;20378;-54
2021/10/21 11:35:15;;;;;;;114.12;38.28;;;;;;;;;;4433496;32;20609;-54
2021/10/21 11:37:50;;;;;;;12.30;10.35;;;;;;;;;;4434885;32;20221;-54
2021/10/21 11:40:23;;;;;;;15.68;11.18;;;;;;;;;;4435105;32;20259;-55
2021/10/21 11:42:56;;;;;;;14.70;11.77;;;;;;;;;;4433242;32;20342;-54
2021/10/21 11:45:28;;;;;;;15.75;11.27;;;;;;;;;;4435067;32;20193;-56
2021/10/21 11:47:54;;;;;;;21.80;12.25;;;;;;;;;;4435089;32;20645;-54
2021/10/21 11:50:32;;;;;;;17.65;12.35;;;;;;;;;;4435106;32;20228;-54
2021/10/21 11:52:59;;;;;;;14.55;11.32;;;;;;;;;;4433780;32;20236;-54
2021/10/21 11:55:28;;;;;;;15.02;12.15;;;;;;;;;;4435495;32;20205;-54
2021/10/21 11:58:00;;;;;;;19.10;12.00;;;;;;;;;;4434681;32;20278;-55
2021/10/21 12:00:28;;;;;;;16.25;11.63;;;;;;;;;;4434526;32;20236;-54
2021/10/21 12:02:59;;;;;;;19.75;12.15;;;;;;;;;;4433949;32;20228;-55
2021/10/21 12:05:32;;;;;;;15.82;12.25;;;;;;;;;;4434755;32;20251;-56
2021/10/21 12:08:00;;;;;;;14.60;10.90;;;;;;;;;;4434461;32;20696;-54
2021/10/21 12:10:46;;;;;;;14.82;10.73;;;;;;;;;;4433497;32;20811;-55
2021/10/21 12:13:24;;;;;;;17.27;12.30;;;;;;;;;;4434531;32;20365;-55
2021/10/21 12:15:52;;;;;;;55.38;20.27;;;;;;;;;;4434442;32;20269;-55
2021/10/21 12:18:18;;;;;;;13.43;11.07;;;;;;;;;;4434619;32;20479;-54
2021/10/21 12:20:51;;;;;;;16.98;12.18;;;;;;;;;;4435424;32;20275;-54
2021/10/21 12:23:36;;;;;;;17.17;12.55;;;;;;;;;;4435055;32;20232;-55
2021/10/21 12:26:07;;;;;;;15.73;11.45;;;;;;;;;;4424080;32;20316;-55
2021/10/21 12:28:52;;;;;;;15.98;12.00;;;;;;;;;;4435159;32;20284;-56
2021/10/21 12:31:32;;;;;;;17.05;11.70;;;;;;;;;;4434305;32;20260;-54
2021/10/21 12:34:01;;;;;;;18.92;14.07;;;;;;;;;;4434857;32;20347;-54
2021/10/21 12:36:34;;;;;;;16.77;12.70;;;;;;;;;;4434866;32;20233;-54
2021/10/21 12:39:11;;;;;;;18.87;12.27;;;;;;;;;;4434526;32;20221;-55
2021/10/21 12:41:58;;;;;;;15.15;11.98;;;;;;;;;;4434874;32;20224;-55
2021/10/21 12:44:32;;;;;;;15.73;11.97;;;;;;;;;;4435029;32;20273;-55
2021/10/21 12:47:25;;;;;;;15.07;11.95;;;;;;;;;;4434780;32;20396;-55
2021/10/21 12:50:02;;;;;;;14.52;11.55;;;;;;;;;;4432911;32;20204;-55
2021/10/21 12:52:28;;;;;;;15.15;10.48;;;;;;;;;;4432420;32;20271;-54
2021/10/21 12:55:24;;;;;;;11.57;9.63;;;;;;;;;;4433564;32;20201;-55
2021/10/21 12:57:54;;;;;;;11.75;9.50;;;;;;;;;;4434321;32;20228;-55
2021/10/21 13:00:34;;;;;;;13.95;10.20;;;;;;;;;;4433818;32;20220;-56
2021/10/21 13:03:04;;;;;;;14.43;9.57;;;;;;;;;;4433522;32;20224;-54
2021/10/21 13:05:29;;;;;;;16.75;10.93;;;;;;;;;;4433093;32;20225;-54
2021/10/21 13:07:55;;;;;;;24.25;11.32;;;;;;;;;;4432915;32;20224;-55
2021/10/21 13:10:20;;;;;;;15.73;11.27;;;;;;;;;;4440531;32;20299;-56
2021/10/21 13:12:46;;;;;;;11.05;8.25;;;;;;;;;;4438282;32;20254;-54
2021/10/21 13:15:12;;;;;;;15.80;9.48;;;;;;;;;;4434130;32;20301;-55
2021/10/21 13:17:37;;;;;;;10.75;7.95;;;;;;;;;;4434116;32;20237;-55
2021/10/21 13:20:03;;;;;;;8.57;7.12;;;;;;;;;;4433468;32;20283;-55
2021/10/21 13:22:29;;;;;;;9.10;7.35;;;;;;;;;;4433658;32;20284;-54
2021/10/21 13:24:54;;;;;;;11.35;8.02;;;;;;;;;;4433904;32;20276;-54
2021/10/21 13:27:19;;;;;;;12.00;8.82;;;;;;;;;;4433042;32;20328;-54
2021/10/21 13:29:45;;;;;;;16.27;11.05;;;;;;;;;;4433230;32;20288;-54
2021/10/21 13:32:11;;;;;;;14.05;9.70;;;;;;;;;;4433140;32;20227;-55
2021/10/21 13:34:37;;;;;;;11.35;8.25;;;;;;;;;;4433865;32;20315;-54
2021/10/21 13:37:05;;;;;;;9.88;7.85;;;;;;;;;;4432091;32;20677;-56
2021/10/21 13:39:30;;;;;;;12.35;8.50;;;;;;;;;;4433582;32;20238;-56
2021/10/21 13:41:56;;;;;;;12.30;7.18;;;;;;;;;;4433111;32;20232;-55
2021/10/21 13:44:21;;;;;;;15.02;8.90;;;;;;;;;;4432266;32;20319;-55
2021/10/21 13:46:47;;;;;;;11.85;9.43;;;;;;;;;;4432136;32;20255;-55
2021/10/21 13:49:13;;;;;;;14.68;9.23;;;;;;;;;;4433530;32;20352;-56
2021/10/21 13:51:39;;;;;;;17.90;9.35;;;;;;;;;;4433439;32;20376;-55
2021/10/21 13:54:06;;;;;;;157.57;56.42;;;;;;;;;;4433219;32;20709;-56
2021/10/21 13:56:32;;;;;;;43.15;20.08;;;;;;;;;;4433255;32;20237;-55
2021/10/21 13:58:57;;;;;;;28.55;15.85;;;;;;;;;;4432026;32;20675;-55
2021/10/21 14:01:24;;;;;;;19.42;11.00;;;;;;;;;;4432672;32;20248;-55
2021/10/21 14:03:50;;;;;;;13.35;8.77;;;;;;;;;;4433545;32;20695;-54
2021/10/21 14:06:18;;;;;;;24.25;13.75;;;;;;;;;;4432690;32;20298;-55
2021/10/21 14:08:45;;;;;;;27.60;15.02;;;;;;;;;;4431863;32;20740;-55
2021/10/21 14:11:10;;;;;;;20.62;10.45;;;;;;;;;;4443427;32;20286;-55
2021/10/21 14:13:36;;;;;;;18.00;10.82;;;;;;;;;;4433549;32;20272;-54
2021/10/21 14:16:02;;;;;;;23.33;12.68;;;;;;;;;;4432669;32;20304;-55
2021/10/21 14:18:29;;;;;;;15.25;10.38;;;;;;;;;;4433351;32;20288;-55
2021/10/21 14:20:55;;;;;;;17.12;11.15;;;;;;;;;;4419501;32;20284;-55
2021/10/21 14:23:20;;;;;;;15.20;10.85;;;;;;;;;;4432936;32;20728;-54
2021/10/21 14:25:46;;;;;;;15.10;8.25;;;;;;;;;;4431705;32;20799;-55